sensor_id;sensor_type;location;lat;lon;timestamp;P1;durP1;ratioP1;P2;durP2;ratioP2
15913;SDS011;8055;51.930;8.840;2023-04-10T00:01:17;55.63;;;32.22;;
15913;SDS011;8055;51.930;8.840;2023-04-10T00:03:43;55.85;;;32.47;;
15913;SDS011;8055;51.930;8.840;2023-04-10T00:06:08;51.55;;;31.38;;
15913;SDS011;8055;51.930;8.840;2023-04-10T00:08:34;51.03;;;31.35;;
15913;SDS011;8055;51.930;8.840;2023-04-10T00:10:59;47.97;;;29.02;;
15913;SDS011;8055;51.930;8.840;2023-04-10T00:13:24;47.03;;;28.48;;
15913;SDS011;8055;51.930;8.840;2023-04-10T00:15:50;51.05;;;28.00;;
15913;SDS011;8055;51.930;8.840;2023-04-10T00:18:16;48.38;;;29.95;;
15913;SDS011;8055;51.930;8.840;2023-04-10T00:20:41;50.70;;;30.30;;
15913;SDS011;8055;51.930;8.840;2023-04-10T00:23:07;52.67;;;29.85;;
15913;SDS011;8055;51.930;8.840;2023-04-10T00:25:33;50.22;;;29.35;;
15913;SDS011;8055;51.930;8.840;2023-04-10T00:27:58;46.78;;;26.88;;
15913;SDS011;8055;51.930;8.840;2023-04-10T00:30:23;41.00;;;25.95;;
15913;SDS011;8055;51.930;8.840;2023-04-10T00:32:49;40.58;;;24.65;;
15913;SDS011;8055;51.930;8.840;2023-04-10T00:35:14;38.65;;;24.52;;
15913;SDS011;8055;51.930;8.840;2023-04-10T00:37:40;41.42;;;24.80;;
15913;SDS011;8055;51.930;8.840;2023-04-10T00:40:05;41.28;;;24.45;;
15913;SDS011;8055;51.930;8.840;2023-04-10T00:42:31;44.33;;;26.95;;
15913;SDS011;8055;51.930;8.840;2023-04-10T00:44:57;44.60;;;27.48;;
15913;SDS011;8055;51.930;8.840;2023-04-10T00:47:23;42.88;;;26.58;;
15913;SDS011;8055;51.930;8.840;2023-04-10T00:49:49;45.65;;;28.17;;
15913;SDS011;8055;51.930;8.840;2023-04-10T00:52:15;42.60;;;26.25;;
15913;SDS011;8055;51.930;8.840;2023-04-10T00:54:41;45.55;;;27.17;;
15913;SDS011;8055;51.930;8.840;2023-04-10T00:57:06;46.95;;;27.52;;
15913;SDS011;8055;51.930;8.840;2023-04-10T00:59:32;44.97;;;26.83;;
15913;SDS011;8055;51.930;8.840;2023-04-10T01:01:57;44.60;;;26.15;;
15913;SDS011;8055;51.930;8.840;2023-04-10T01:04:23;44.22;;;27.23;;
15913;SDS011;8055;51.930;8.840;2023-04-10T01:07:14;47.83;;;26.20;;
15913;SDS011;8055;51.930;8.840;2023-04-10T01:12:27;49.53;;;26.60;;
15913;SDS011;8055;51.930;8.840;2023-04-10T01:15:16;39.15;;;24.73;;
15913;SDS011;8055;51.930;8.840;2023-04-10T01:20:21;35.22;;;21.00;;
15913;SDS011;8055;51.930;8.840;2023-04-10T01:22:56;39.43;;;24.07;;
15913;SDS011;8055;51.930;8.840;2023-04-10T01:25:58;45.15;;;25.17;;
15913;SDS011;8055;51.930;8.840;2023-04-10T01:31:16;44.55;;;26.95;;
15913;SDS011;8055;51.930;8.840;2023-04-10T01:33:46;38.78;;;24.73;;
15913;SDS011;8055;51.930;8.840;2023-04-10T01:38:48;40.17;;;24.27;;
15913;SDS011;8055;51.930;8.840;2023-04-10T01:41:17;41.55;;;25.70;;
15913;SDS011;8055;51.930;8.840;2023-04-10T01:43:43;40.47;;;24.30;;
15913;SDS011;8055;51.930;8.840;2023-04-10T01:46:12;42.90;;;25.38;;
15913;SDS011;8055;51.930;8.840;2023-04-10T01:48:38;37.65;;;23.33;;
15913;SDS011;8055;51.930;8.840;2023-04-10T01:51:05;42.60;;;25.02;;
15913;SDS011;8055;51.930;8.840;2023-04-10T01:53:33;38.10;;;23.42;;
15913;SDS011;8055;51.930;8.840;2023-04-10T01:56:00;41.78;;;23.98;;
15913;SDS011;8055;51.930;8.840;2023-04-10T01:58:27;39.55;;;24.55;;
15913;SDS011;8055;51.930;8.840;2023-04-10T02:00:52;36.78;;;23.15;;
15913;SDS011;8055;51.930;8.840;2023-04-10T02:03:18;43.45;;;24.70;;
15913;SDS011;8055;51.930;8.840;2023-04-10T02:08:17;38.33;;;25.23;;
15913;SDS011;8055;51.930;8.840;2023-04-10T02:10:51;44.22;;;26.20;;
15913;SDS011;8055;51.930;8.840;2023-04-10T02:13:21;45.70;;;26.08;;
15913;SDS011;8055;51.930;8.840;2023-04-10T02:15:50;42.97;;;25.88;;
15913;SDS011;8055;51.930;8.840;2023-04-10T02:18:19;49.72;;;26.40;;
15913;SDS011;8055;51.930;8.840;2023-04-10T02:20:46;41.03;;;25.77;;
15913;SDS011;8055;51.930;8.840;2023-04-10T02:23:14;39.92;;;25.40;;
15913;SDS011;8055;51.930;8.840;2023-04-10T02:25:41;46.08;;;26.92;;
15913;SDS011;8055;51.930;8.840;2023-04-10T02:28:07;41.47;;;24.95;;
15913;SDS011;8055;51.930;8.840;2023-04-10T02:30:32;43.08;;;24.95;;
15913;SDS011;8055;51.930;8.840;2023-04-10T02:32:58;40.30;;;24.45;;
15913;SDS011;8055;51.930;8.840;2023-04-10T02:35:24;43.42;;;25.58;;
15913;SDS011;8055;51.930;8.840;2023-04-10T02:37:50;40.30;;;25.13;;
15913;SDS011;8055;51.930;8.840;2023-04-10T02:40:16;42.58;;;24.42;;
15913;SDS011;8055;51.930;8.840;2023-04-10T02:42:41;38.65;;;23.73;;
15913;SDS011;8055;51.930;8.840;2023-04-10T02:45:07;41.72;;;24.63;;
15913;SDS011;8055;51.930;8.840;2023-04-10T02:47:33;45.08;;;26.13;;
15913;SDS011;8055;51.930;8.840;2023-04-10T02:49:59;42.88;;;24.55;;
15913;SDS011;8055;51.930;8.840;2023-04-10T02:52:24;37.20;;;22.98;;
15913;SDS011;8055;51.930;8.840;2023-04-10T02:54:50;38.78;;;23.60;;
15913;SDS011;8055;51.930;8.840;2023-04-10T02:57:15;39.67;;;23.33;;
15913;SDS011;8055;51.930;8.840;2023-04-10T02:59:44;35.58;;;22.92;;
15913;SDS011;8055;51.930;8.840;2023-04-10T03:02:09;38.47;;;23.38;;
15913;SDS011;8055;51.930;8.840;2023-04-10T03:04:35;36.83;;;23.17;;
15913;SDS011;8055;51.930;8.840;2023-04-10T03:07:00;34.55;;;22.10;;
15913;SDS011;8055;51.930;8.840;2023-04-10T03:09:26;36.67;;;23.10;;
15913;SDS011;8055;51.930;8.840;2023-04-10T03:11:51;38.88;;;22.70;;
15913;SDS011;8055;51.930;8.840;2023-04-10T03:14:17;36.47;;;21.35;;
15913;SDS011;8055;51.930;8.840;2023-04-10T03:16:42;38.15;;;23.77;;
15913;SDS011;8055;51.930;8.840;2023-04-10T03:19:08;36.70;;;22.80;;
15913;SDS011;8055;51.930;8.840;2023-04-10T03:21:33;34.50;;;21.60;;
15913;SDS011;8055;51.930;8.840;2023-04-10T03:23:59;35.28;;;22.10;;
15913;SDS011;8055;51.930;8.840;2023-04-10T03:26:25;36.72;;;23.42;;
15913;SDS011;8055;51.930;8.840;2023-04-10T03:28:50;38.90;;;23.20;;
15913;SDS011;8055;51.930;8.840;2023-04-10T03:31:16;37.58;;;23.65;;
15913;SDS011;8055;51.930;8.840;2023-04-10T03:33:41;35.38;;;22.35;;
15913;SDS011;8055;51.930;8.840;2023-04-10T03:36:07;38.92;;;23.70;;
15913;SDS011;8055;51.930;8.840;2023-04-10T03:38:33;39.00;;;23.60;;
15913;SDS011;8055;51.930;8.840;2023-04-10T03:40:58;43.97;;;26.10;;
15913;SDS011;8055;51.930;8.840;2023-04-10T03:43:23;42.75;;;25.00;;
15913;SDS011;8055;51.930;8.840;2023-04-10T03:45:49;40.50;;;24.20;;
15913;SDS011;8055;51.930;8.840;2023-04-10T03:48:15;38.20;;;23.65;;
15913;SDS011;8055;51.930;8.840;2023-04-10T03:50:42;39.40;;;24.00;;
15913;SDS011;8055;51.930;8.840;2023-04-10T03:53:07;40.20;;;25.17;;
15913;SDS011;8055;51.930;8.840;2023-04-10T03:55:33;35.45;;;23.25;;
15913;SDS011;8055;51.930;8.840;2023-04-10T03:57:58;41.70;;;25.67;;
15913;SDS011;8055;51.930;8.840;2023-04-10T04:00:24;37.78;;;23.60;;
15913;SDS011;8055;51.930;8.840;2023-04-10T04:02:50;38.47;;;23.65;;
15913;SDS011;8055;51.930;8.840;2023-04-10T04:05:15;36.90;;;23.67;;
15913;SDS011;8055;51.930;8.840;2023-04-10T04:07:41;39.83;;;24.85;;
15913;SDS011;8055;51.930;8.840;2023-04-10T04:10:06;36.33;;;22.77;;
15913;SDS011;8055;51.930;8.840;2023-04-10T04:12:32;41.10;;;24.08;;
15913;SDS011;8055;51.930;8.840;2023-04-10T04:14:57;38.92;;;23.80;;
15913;SDS011;8055;51.930;8.840;2023-04-10T04:17:22;37.75;;;22.70;;
15913;SDS011;8055;51.930;8.840;2023-04-10T04:19:48;43.08;;;26.02;;
15913;SDS011;8055;51.930;8.840;2023-04-10T04:22:13;40.67;;;25.17;;
15913;SDS011;8055;51.930;8.840;2023-04-10T04:24:39;40.05;;;24.13;;
15913;SDS011;8055;51.930;8.840;2023-04-10T04:27:04;38.10;;;23.23;;
15913;SDS011;8055;51.930;8.840;2023-04-10T04:29:30;35.63;;;22.35;;
15913;SDS011;8055;51.930;8.840;2023-04-10T04:31:56;39.40;;;22.98;;
15913;SDS011;8055;51.930;8.840;2023-04-10T04:34:21;36.75;;;22.20;;
15913;SDS011;8055;51.930;8.840;2023-04-10T04:36:46;39.28;;;23.73;;
15913;SDS011;8055;51.930;8.840;2023-04-10T04:39:12;36.45;;;22.95;;
15913;SDS011;8055;51.930;8.840;2023-04-10T04:41:38;37.20;;;22.88;;
15913;SDS011;8055;51.930;8.840;2023-04-10T04:44:04;36.33;;;22.00;;
15913;SDS011;8055;51.930;8.840;2023-04-10T04:46:30;33.05;;;21.95;;
15913;SDS011;8055;51.930;8.840;2023-04-10T04:48:55;39.58;;;22.67;;
15913;SDS011;8055;51.930;8.840;2023-04-10T04:51:21;39.22;;;23.85;;
15913;SDS011;8055;51.930;8.840;2023-04-10T04:53:46;37.03;;;22.60;;
15913;SDS011;8055;51.930;8.840;2023-04-10T04:56:11;37.28;;;22.88;;
15913;SDS011;8055;51.930;8.840;2023-04-10T04:58:37;44.00;;;23.67;;
15913;SDS011;8055;51.930;8.840;2023-04-10T05:01:02;36.83;;;23.20;;
15913;SDS011;8055;51.930;8.840;2023-04-10T05:03:28;39.80;;;23.42;;
15913;SDS011;8055;51.930;8.840;2023-04-10T05:05:53;39.38;;;24.13;;
15913;SDS011;8055;51.930;8.840;2023-04-10T05:08:19;38.38;;;23.33;;
15913;SDS011;8055;51.930;8.840;2023-04-10T05:10:45;38.80;;;23.88;;
15913;SDS011;8055;51.930;8.840;2023-04-10T05:13:10;40.40;;;24.73;;
15913;SDS011;8055;51.930;8.840;2023-04-10T05:15:36;43.70;;;25.48;;
15913;SDS011;8055;51.930;8.840;2023-04-10T05:18:02;39.58;;;24.48;;
15913;SDS011;8055;51.930;8.840;2023-04-10T05:20:27;39.20;;;25.15;;
15913;SDS011;8055;51.930;8.840;2023-04-10T05:22:52;40.25;;;25.58;;
15913;SDS011;8055;51.930;8.840;2023-04-10T05:25:18;39.53;;;24.65;;
15913;SDS011;8055;51.930;8.840;2023-04-10T05:27:43;41.13;;;25.73;;
15913;SDS011;8055;51.930;8.840;2023-04-10T05:30:09;43.97;;;26.63;;
15913;SDS011;8055;51.930;8.840;2023-04-10T05:32:35;42.13;;;25.52;;
15913;SDS011;8055;51.930;8.840;2023-04-10T05:35:00;40.97;;;24.08;;
15913;SDS011;8055;51.930;8.840;2023-04-10T05:37:26;37.67;;;25.08;;
15913;SDS011;8055;51.930;8.840;2023-04-10T05:39:51;39.05;;;24.15;;
15913;SDS011;8055;51.930;8.840;2023-04-10T05:42:16;39.35;;;24.63;;
15913;SDS011;8055;51.930;8.840;2023-04-10T05:44:43;37.90;;;23.75;;
15913;SDS011;8055;51.930;8.840;2023-04-10T05:47:08;39.28;;;24.58;;
15913;SDS011;8055;51.930;8.840;2023-04-10T05:49:33;42.53;;;25.33;;
15913;SDS011;8055;51.930;8.840;2023-04-10T05:51:59;38.15;;;24.30;;
15913;SDS011;8055;51.930;8.840;2023-04-10T05:54:24;39.10;;;24.10;;
15913;SDS011;8055;51.930;8.840;2023-04-10T05:56:50;38.15;;;24.27;;
15913;SDS011;8055;51.930;8.840;2023-04-10T05:59:15;39.17;;;24.55;;
15913;SDS011;8055;51.930;8.840;2023-04-10T06:01:41;39.42;;;24.60;;
15913;SDS011;8055;51.930;8.840;2023-04-10T06:04:06;36.05;;;22.92;;
15913;SDS011;8055;51.930;8.840;2023-04-10T06:06:32;35.95;;;22.23;;
15913;SDS011;8055;51.930;8.840;2023-04-10T06:08:57;42.65;;;23.00;;
15913;SDS011;8055;51.930;8.840;2023-04-10T06:11:23;36.97;;;23.27;;
15913;SDS011;8055;51.930;8.840;2023-04-10T06:13:48;34.97;;;23.13;;
15913;SDS011;8055;51.930;8.840;2023-04-10T06:16:14;34.13;;;21.98;;
15913;SDS011;8055;51.930;8.840;2023-04-10T06:18:40;35.85;;;23.10;;
15913;SDS011;8055;51.930;8.840;2023-04-10T06:21:06;35.70;;;22.67;;
15913;SDS011;8055;51.930;8.840;2023-04-10T06:23:31;38.22;;;23.30;;
15913;SDS011;8055;51.930;8.840;2023-04-10T06:25:57;31.25;;;21.08;;
15913;SDS011;8055;51.930;8.840;2023-04-10T06:28:22;33.58;;;21.83;;
15913;SDS011;8055;51.930;8.840;2023-04-10T06:30:48;34.55;;;21.92;;
15913;SDS011;8055;51.930;8.840;2023-04-10T06:33:13;34.80;;;22.70;;
15913;SDS011;8055;51.930;8.840;2023-04-10T06:35:40;33.90;;;21.60;;
15913;SDS011;8055;51.930;8.840;2023-04-10T06:38:06;35.65;;;21.30;;
15913;SDS011;8055;51.930;8.840;2023-04-10T06:40:31;32.15;;;20.75;;
15913;SDS011;8055;51.930;8.840;2023-04-10T06:42:58;34.78;;;21.25;;
15913;SDS011;8055;51.930;8.840;2023-04-10T06:45:23;31.63;;;19.92;;
15913;SDS011;8055;51.930;8.840;2023-04-10T06:47:49;29.48;;;19.30;;
15913;SDS011;8055;51.930;8.840;2023-04-10T06:50:15;28.67;;;19.50;;
15913;SDS011;8055;51.930;8.840;2023-04-10T06:52:40;25.67;;;17.38;;
15913;SDS011;8055;51.930;8.840;2023-04-10T06:55:06;29.60;;;19.42;;
15913;SDS011;8055;51.930;8.840;2023-04-10T06:57:31;28.90;;;18.67;;
15913;SDS011;8055;51.930;8.840;2023-04-10T06:59:57;29.98;;;19.50;;
15913;SDS011;8055;51.930;8.840;2023-04-10T07:02:22;26.80;;;18.38;;
15913;SDS011;8055;51.930;8.840;2023-04-10T07:04:47;26.40;;;17.92;;
15913;SDS011;8055;51.930;8.840;2023-04-10T07:07:14;27.63;;;17.58;;
15913;SDS011;8055;51.930;8.840;2023-04-10T07:09:40;24.92;;;17.23;;
15913;SDS011;8055;51.930;8.840;2023-04-10T07:12:05;24.45;;;16.95;;
15913;SDS011;8055;51.930;8.840;2023-04-10T07:14:31;26.35;;;18.05;;
15913;SDS011;8055;51.930;8.840;2023-04-10T07:16:59;26.15;;;17.25;;
15913;SDS011;8055;51.930;8.840;2023-04-10T07:19:24;26.17;;;17.20;;
15913;SDS011;8055;51.930;8.840;2023-04-10T07:21:50;27.88;;;16.77;;
15913;SDS011;8055;51.930;8.840;2023-04-10T07:24:16;24.58;;;16.23;;
15913;SDS011;8055;51.930;8.840;2023-04-10T07:26:42;22.95;;;16.75;;
15913;SDS011;8055;51.930;8.840;2023-04-10T07:29:11;22.85;;;16.08;;
15913;SDS011;8055;51.930;8.840;2023-04-10T07:31:37;21.80;;;15.52;;
15913;SDS011;8055;51.930;8.840;2023-04-10T07:34:02;23.27;;;15.57;;
15913;SDS011;8055;51.930;8.840;2023-04-10T07:36:27;19.33;;;14.23;;
15913;SDS011;8055;51.930;8.840;2023-04-10T07:38:53;21.00;;;14.43;;
15913;SDS011;8055;51.930;8.840;2023-04-10T07:41:19;20.08;;;13.95;;
15913;SDS011;8055;51.930;8.840;2023-04-10T07:43:46;19.70;;;14.05;;
15913;SDS011;8055;51.930;8.840;2023-04-10T07:46:11;17.05;;;12.32;;
15913;SDS011;8055;51.930;8.840;2023-04-10T07:48:37;19.17;;;12.18;;
15913;SDS011;8055;51.930;8.840;2023-04-10T07:51:02;14.02;;;10.75;;
15913;SDS011;8055;51.930;8.840;2023-04-10T07:53:28;14.23;;;10.30;;
15913;SDS011;8055;51.930;8.840;2023-04-10T07:55:53;13.40;;;10.07;;
15913;SDS011;8055;51.930;8.840;2023-04-10T07:58:18;13.40;;;9.27;;
15913;SDS011;8055;51.930;8.840;2023-04-10T08:00:44;12.23;;;9.20;;
15913;SDS011;8055;51.930;8.840;2023-04-10T08:03:10;11.02;;;8.95;;
15913;SDS011;8055;51.930;8.840;2023-04-10T08:05:37;11.60;;;9.38;;
15913;SDS011;8055;51.930;8.840;2023-04-10T08:08:02;13.57;;;9.70;;
15913;SDS011;8055;51.930;8.840;2023-04-10T08:10:28;16.38;;;9.60;;
15913;SDS011;8055;51.930;8.840;2023-04-10T08:12:53;11.52;;;9.48;;
15913;SDS011;8055;51.930;8.840;2023-04-10T08:15:18;11.93;;;9.75;;
15913;SDS011;8055;51.930;8.840;2023-04-10T08:17:44;12.20;;;9.95;;
15913;SDS011;8055;51.930;8.840;2023-04-10T08:20:10;14.18;;;9.40;;
15913;SDS011;8055;51.930;8.840;2023-04-10T08:22:36;13.88;;;10.45;;
15913;SDS011;8055;51.930;8.840;2023-04-10T08:25:02;13.52;;;9.82;;
15913;SDS011;8055;51.930;8.840;2023-04-10T08:27:28;11.57;;;9.55;;
15913;SDS011;8055;51.930;8.840;2023-04-10T08:29:54;12.80;;;9.98;;
15913;SDS011;8055;51.930;8.840;2023-04-10T08:32:20;15.10;;;10.73;;
15913;SDS011;8055;51.930;8.840;2023-04-10T08:34:45;11.68;;;9.45;;
15913;SDS011;8055;51.930;8.840;2023-04-10T08:37:11;12.32;;;10.10;;
15913;SDS011;8055;51.930;8.840;2023-04-10T08:39:39;12.88;;;9.90;;
15913;SDS011;8055;51.930;8.840;2023-04-10T08:42:05;11.77;;;9.32;;
15913;SDS011;8055;51.930;8.840;2023-04-10T08:44:31;12.95;;;9.77;;
15913;SDS011;8055;51.930;8.840;2023-04-10T08:46:57;12.52;;;10.18;;
15913;SDS011;8055;51.930;8.840;2023-04-10T08:51:56;13.32;;;10.80;;
15913;SDS011;8055;51.930;8.840;2023-04-10T08:54:29;14.90;;;10.65;;
15913;SDS011;8055;51.930;8.840;2023-04-10T08:56:57;11.02;;;9.43;;
15913;SDS011;8055;51.930;8.840;2023-04-10T08:59:26;13.38;;;9.93;;
15913;SDS011;8055;51.930;8.840;2023-04-10T09:01:53;13.68;;;10.52;;
15913;SDS011;8055;51.930;8.840;2023-04-10T09:04:18;13.80;;;10.70;;
15913;SDS011;8055;51.930;8.840;2023-04-10T09:06:44;12.75;;;10.23;;
15913;SDS011;8055;51.930;8.840;2023-04-10T09:09:11;14.35;;;10.13;;
15913;SDS011;8055;51.930;8.840;2023-04-10T09:14:20;13.02;;;10.45;;
15913;SDS011;8055;51.930;8.840;2023-04-10T09:19:44;13.07;;;9.98;;
15913;SDS011;8055;51.930;8.840;2023-04-10T09:22:12;13.45;;;10.40;;
15913;SDS011;8055;51.930;8.840;2023-04-10T09:24:40;14.23;;;11.10;;
15913;SDS011;8055;51.930;8.840;2023-04-10T09:27:07;13.45;;;10.80;;
15913;SDS011;8055;51.930;8.840;2023-04-10T09:29:42;12.85;;;10.00;;
15913;SDS011;8055;51.930;8.840;2023-04-10T09:32:10;13.73;;;10.15;;
15913;SDS011;8055;51.930;8.840;2023-04-10T09:34:52;12.50;;;10.15;;
15913;SDS011;8055;51.930;8.840;2023-04-10T09:37:19;12.18;;;10.00;;
15913;SDS011;8055;51.930;8.840;2023-04-10T09:39:46;12.25;;;10.20;;
15913;SDS011;8055;51.930;8.840;2023-04-10T09:42:12;12.05;;;9.48;;
15913;SDS011;8055;51.930;8.840;2023-04-10T09:44:38;11.40;;;8.90;;
15913;SDS011;8055;51.930;8.840;2023-04-10T09:54:45;11.40;;;9.23;;
15913;SDS011;8055;51.930;8.840;2023-04-10T09:57:15;11.05;;;8.85;;
15913;SDS011;8055;51.930;8.840;2023-04-10T09:59:48;11.00;;;8.95;;
15913;SDS011;8055;51.930;8.840;2023-04-10T10:02:16;12.77;;;9.52;;
15913;SDS011;8055;51.930;8.840;2023-04-10T10:04:43;11.20;;;8.75;;
15913;SDS011;8055;51.930;8.840;2023-04-10T10:07:16;9.52;;;8.30;;
15913;SDS011;8055;51.930;8.840;2023-04-10T10:09:44;10.10;;;8.35;;
15913;SDS011;8055;51.930;8.840;2023-04-10T10:12:11;11.45;;;8.00;;
15913;SDS011;8055;51.930;8.840;2023-04-10T10:14:43;10.48;;;8.07;;
15913;SDS011;8055;51.930;8.840;2023-04-10T10:17:22;9.48;;;7.65;;
15913;SDS011;8055;51.930;8.840;2023-04-10T10:19:56;8.63;;;7.47;;
15913;SDS011;8055;51.930;8.840;2023-04-10T10:22:28;10.05;;;7.82;;
15913;SDS011;8055;51.930;8.840;2023-04-10T10:24:54;11.45;;;8.52;;
15913;SDS011;8055;51.930;8.840;2023-04-10T10:27:21;9.60;;;8.02;;
15913;SDS011;8055;51.930;8.840;2023-04-10T10:29:48;9.15;;;7.82;;
15913;SDS011;8055;51.930;8.840;2023-04-10T10:32:17;11.60;;;7.30;;
15913;SDS011;8055;51.930;8.840;2023-04-10T10:34:43;10.23;;;7.70;;
15913;SDS011;8055;51.930;8.840;2023-04-10T10:37:10;7.95;;;6.60;;
15913;SDS011;8055;51.930;8.840;2023-04-10T10:44:53;9.65;;;7.10;;
15913;SDS011;8055;51.930;8.840;2023-04-10T10:47:31;7.75;;;6.82;;
15913;SDS011;8055;51.930;8.840;2023-04-10T10:50:03;7.95;;;6.68;;
15913;SDS011;8055;51.930;8.840;2023-04-10T10:57:54;7.75;;;6.80;;
15913;SDS011;8055;51.930;8.840;2023-04-10T11:00:22;7.65;;;6.85;;
15913;SDS011;8055;51.930;8.840;2023-04-10T11:05:54;7.78;;;6.80;;
15913;SDS011;8055;51.930;8.840;2023-04-10T11:08:40;9.50;;;6.60;;
15913;SDS011;8055;51.930;8.840;2023-04-10T11:11:17;7.00;;;6.10;;
15913;SDS011;8055;51.930;8.840;2023-04-10T11:19:00;7.15;;;5.65;;
15913;SDS011;8055;51.930;8.840;2023-04-10T11:21:30;8.77;;;6.45;;
15913;SDS011;8055;51.930;8.840;2023-04-10T11:29:02;8.20;;;6.72;;
15913;SDS011;8055;51.930;8.840;2023-04-10T11:31:54;8.57;;;6.47;;
15913;SDS011;8055;51.930;8.840;2023-04-10T11:34:21;6.95;;;6.00;;
15913;SDS011;8055;51.930;8.840;2023-04-10T11:36:47;6.70;;;5.60;;
15913;SDS011;8055;51.930;8.840;2023-04-10T11:39:12;6.60;;;5.68;;
15913;SDS011;8055;51.930;8.840;2023-04-10T11:41:44;6.60;;;5.60;;
15913;SDS011;8055;51.930;8.840;2023-04-10T11:44:16;6.35;;;5.70;;
15913;SDS011;8055;51.930;8.840;2023-04-10T11:46:45;6.55;;;5.55;;
15913;SDS011;8055;51.930;8.840;2023-04-10T11:49:11;7.68;;;5.30;;
15913;SDS011;8055;51.930;8.840;2023-04-10T11:51:43;7.20;;;5.18;;
15913;SDS011;8055;51.930;8.840;2023-04-10T11:54:11;7.80;;;5.93;;
15913;SDS011;8055;51.930;8.840;2023-04-10T11:56:44;6.00;;;5.00;;
15913;SDS011;8055;51.930;8.840;2023-04-10T11:59:31;6.50;;;5.43;;
15913;SDS011;8055;51.930;8.840;2023-04-10T12:04:31;6.40;;;5.50;;
15913;SDS011;8055;51.930;8.840;2023-04-10T12:06:56;5.70;;;5.05;;
15913;SDS011;8055;51.930;8.840;2023-04-10T12:09:22;9.43;;;5.75;;
15913;SDS011;8055;51.930;8.840;2023-04-10T12:11:54;5.75;;;5.18;;
15913;SDS011;8055;51.930;8.840;2023-04-10T12:14:36;5.78;;;5.18;;
15913;SDS011;8055;51.930;8.840;2023-04-10T12:17:06;6.85;;;5.85;;
15913;SDS011;8055;51.930;8.840;2023-04-10T12:19:33;7.82;;;5.85;;
15913;SDS011;8055;51.930;8.840;2023-04-10T12:21:59;5.95;;;4.97;;
15913;SDS011;8055;51.930;8.840;2023-04-10T12:27:22;7.00;;;5.88;;
15913;SDS011;8055;51.930;8.840;2023-04-10T12:29:54;7.38;;;5.93;;
15913;SDS011;8055;51.930;8.840;2023-04-10T12:32:21;6.57;;;5.45;;
15913;SDS011;8055;51.930;8.840;2023-04-10T12:34:54;6.38;;;5.50;;
15913;SDS011;8055;51.930;8.840;2023-04-10T12:37:21;5.80;;;5.10;;
15913;SDS011;8055;51.930;8.840;2023-04-10T12:39:47;7.95;;;5.95;;
15913;SDS011;8055;51.930;8.840;2023-04-10T12:42:13;7.85;;;6.20;;
15913;SDS011;8055;51.930;8.840;2023-04-10T12:44:53;6.47;;;5.65;;
15913;SDS011;8055;51.930;8.840;2023-04-10T12:47:18;6.32;;;5.40;;
15913;SDS011;8055;51.930;8.840;2023-04-10T12:52:29;6.80;;;6.05;;
15913;SDS011;8055;51.930;8.840;2023-04-10T12:55:06;7.22;;;5.45;;
15913;SDS011;8055;51.930;8.840;2023-04-10T12:57:36;8.00;;;5.88;;
15913;SDS011;8055;51.930;8.840;2023-04-10T13:00:03;6.65;;;5.82;;
15913;SDS011;8055;51.930;8.840;2023-04-10T13:02:29;5.78;;;5.20;;
15913;SDS011;8055;51.930;8.840;2023-04-10T13:04:55;6.45;;;5.70;;
15913;SDS011;8055;51.930;8.840;2023-04-10T13:07:20;6.22;;;5.47;;
15913;SDS011;8055;51.930;8.840;2023-04-10T13:09:45;6.28;;;5.57;;
15913;SDS011;8055;51.930;8.840;2023-04-10T13:12:11;7.25;;;5.25;;
15913;SDS011;8055;51.930;8.840;2023-04-10T13:14:37;6.75;;;5.57;;
15913;SDS011;8055;51.930;8.840;2023-04-10T13:17:02;6.18;;;5.00;;
15913;SDS011;8055;51.930;8.840;2023-04-10T13:19:28;7.88;;;5.32;;
15913;SDS011;8055;51.930;8.840;2023-04-10T13:21:53;5.47;;;4.90;;
15913;SDS011;8055;51.930;8.840;2023-04-10T13:24:18;6.30;;;5.20;;
15913;SDS011;8055;51.930;8.840;2023-04-10T13:26:44;6.00;;;5.40;;
15913;SDS011;8055;51.930;8.840;2023-04-10T13:29:09;6.53;;;4.97;;
15913;SDS011;8055;51.930;8.840;2023-04-10T13:31:35;5.88;;;4.35;;
15913;SDS011;8055;51.930;8.840;2023-04-10T13:34:00;5.03;;;4.40;;
15913;SDS011;8055;51.930;8.840;2023-04-10T13:36:25;4.47;;;4.03;;
15913;SDS011;8055;51.930;8.840;2023-04-10T13:38:51;4.13;;;3.35;;
15913;SDS011;8055;51.930;8.840;2023-04-10T13:41:16;4.07;;;3.53;;
15913;SDS011;8055;51.930;8.840;2023-04-10T13:43:41;3.92;;;3.50;;
15913;SDS011;8055;51.930;8.840;2023-04-10T13:46:07;4.40;;;3.50;;
15913;SDS011;8055;51.930;8.840;2023-04-10T13:48:32;4.80;;;3.33;;
15913;SDS011;8055;51.930;8.840;2023-04-10T13:50:57;4.78;;;3.28;;
15913;SDS011;8055;51.930;8.840;2023-04-10T13:53:23;4.15;;;3.17;;
15913;SDS011;8055;51.930;8.840;2023-04-10T13:55:48;3.88;;;3.00;;
15913;SDS011;8055;51.930;8.840;2023-04-10T13:58:14;3.63;;;3.15;;
15913;SDS011;8055;51.930;8.840;2023-04-10T14:00:43;3.28;;;2.97;;
15913;SDS011;8055;51.930;8.840;2023-04-10T14:03:09;3.85;;;3.25;;
15913;SDS011;8055;51.930;8.840;2023-04-10T14:05:36;3.40;;;3.10;;
15913;SDS011;8055;51.930;8.840;2023-04-10T14:08:03;3.47;;;3.15;;
15913;SDS011;8055;51.930;8.840;2023-04-10T14:10:28;5.65;;;2.90;;
15913;SDS011;8055;51.930;8.840;2023-04-10T14:12:54;3.30;;;2.40;;
15913;SDS011;8055;51.930;8.840;2023-04-10T14:15:20;2.55;;;1.98;;
15913;SDS011;8055;51.930;8.840;2023-04-10T14:17:45;2.40;;;2.20;;
15913;SDS011;8055;51.930;8.840;2023-04-10T14:20:11;3.38;;;2.90;;
15913;SDS011;8055;51.930;8.840;2023-04-10T14:22:37;3.60;;;2.28;;
15913;SDS011;8055;51.930;8.840;2023-04-10T14:25:02;3.50;;;2.35;;
15913;SDS011;8055;51.930;8.840;2023-04-10T14:27:29;2.58;;;2.30;;
15913;SDS011;8055;51.930;8.840;2023-04-10T14:29:55;2.50;;;2.30;;
15913;SDS011;8055;51.930;8.840;2023-04-10T14:32:21;2.22;;;2.03;;
15913;SDS011;8055;51.930;8.840;2023-04-10T14:34:46;2.10;;;1.80;;
15913;SDS011;8055;51.930;8.840;2023-04-10T14:37:12;1.95;;;1.80;;
15913;SDS011;8055;51.930;8.840;2023-04-10T14:39:37;2.53;;;2.17;;
15913;SDS011;8055;51.930;8.840;2023-04-10T14:42:02;3.00;;;2.03;;
15913;SDS011;8055;51.930;8.840;2023-04-10T14:44:28;2.75;;;2.35;;
15913;SDS011;8055;51.930;8.840;2023-04-10T14:46:54;2.88;;;2.20;;
15913;SDS011;8055;51.930;8.840;2023-04-10T14:49:19;2.55;;;1.88;;
15913;SDS011;8055;51.930;8.840;2023-04-10T14:51:45;2.45;;;2.15;;
15913;SDS011;8055;51.930;8.840;2023-04-10T14:54:12;2.22;;;1.92;;
15913;SDS011;8055;51.930;8.840;2023-04-10T14:56:38;2.35;;;2.00;;
15913;SDS011;8055;51.930;8.840;2023-04-10T14:59:03;3.38;;;2.47;;
15913;SDS011;8055;51.930;8.840;2023-04-10T15:01:29;2.63;;;2.17;;
15913;SDS011;8055;51.930;8.840;2023-04-10T15:03:54;3.92;;;2.08;;
15913;SDS011;8055;51.930;8.840;2023-04-10T15:06:20;2.58;;;2.05;;
15913;SDS011;8055;51.930;8.840;2023-04-10T15:08:45;4.28;;;2.08;;
15913;SDS011;8055;51.930;8.840;2023-04-10T15:11:11;2.38;;;2.17;;
15913;SDS011;8055;51.930;8.840;2023-04-10T15:13:36;2.83;;;2.40;;
15913;SDS011;8055;51.930;8.840;2023-04-10T15:16:03;2.90;;;1.95;;
15913;SDS011;8055;51.930;8.840;2023-04-10T15:18:30;2.63;;;2.20;;
15913;SDS011;8055;51.930;8.840;2023-04-10T15:20:55;2.70;;;2.30;;
15913;SDS011;8055;51.930;8.840;2023-04-10T15:23:20;2.28;;;2.08;;
15913;SDS011;8055;51.930;8.840;2023-04-10T15:25:46;2.83;;;2.47;;
15913;SDS011;8055;51.930;8.840;2023-04-10T15:28:11;5.00;;;2.22;;
15913;SDS011;8055;51.930;8.840;2023-04-10T15:30:37;2.83;;;2.50;;
15913;SDS011;8055;51.930;8.840;2023-04-10T15:33:02;2.47;;;2.28;;
15913;SDS011;8055;51.930;8.840;2023-04-10T15:35:27;2.90;;;2.60;;
15913;SDS011;8055;51.930;8.840;2023-04-10T15:37:54;3.92;;;2.50;;
15913;SDS011;8055;51.930;8.840;2023-04-10T15:40:20;4.13;;;2.60;;
15913;SDS011;8055;51.930;8.840;2023-04-10T15:42:46;3.22;;;2.60;;
15913;SDS011;8055;51.930;8.840;2023-04-10T15:45:11;2.92;;;2.63;;